Green Bay, WI

11:54 PM CST on December 21, 2014 (GMT -0600)
Nicolet Airfield | Change Station
CLOSE
Current Station
Personal Weather Station
Location: Green Bay, WI
Elevation: 791 ft
Nearby Weather Stations

Elev 791 ft 44.51 °N, 87.86 °W | Updated 41 seconds ago

Overcast
Overcast
35.6 °F
Feels Like 26 °F
N
15.0
Wind Variable Wind from WNW
Gusts 25.0 mph

Today
High -- | Low -- °F
--% Chance of Precip.
Yesterday
High -- | Low -- °F
Precip. -- in
7:24 AM 4:14 PM
New Moon, 0% visible
Pressure 29.96 in
Visibility 6.0 miles
Clouds Scattered Clouds 2500 ft
Overcast 3500 ft
Windchill 26 °F
Dew Point 32 °F
Humidity 87%
Rainfall 0.00 in
Snow Depth Not available.
UV 0 out of 12
Pollen .10 out of 12
Air Quality Not available.
Flu Activity Not available.
SPECI KGRB 220538Z AUTO 17013G22KT 6SM HZ SCT025 OVC035 02/M01 A2996 RMK AO2 T00221011

More Conditions Fewer Conditions

Pressure 29.96 in
Visibility 6.0 miles
Clouds Scattered Clouds 2500 ft
Overcast 3500 ft
Windchill 26 °F
Dew Point 32 °F
Humidity 87%
Rainfall 0.00 in
Snow Depth Not available.
UV 0 out of 12
Pollen .10 out of 12
Air Quality Not available.
Flu Activity Not available.
SPECI KGRB 220538Z AUTO 17013G22KT 6SM HZ SCT025 OVC035 02/M01 A2996 RMK AO2 T00221011

More Conditions Fewer Conditions

10-Day Weather Forecast

Almanac

Astronomy

Dec. 21, 2014 Rise Set
Actual Time
Civil Twilight
Nautical Twilight
Astronomical Twilight
Moon
Length of Visible Light
Length of Day
Tomorrow will be .
, % of the Moon is Illuminated

Today's Extremes

State Highs State Lows

Community

WunderPhotos

Upload Photos

1,779,549 photos uploaded!

WunderBlogs® & News

Nearby

Air Quality

  Air Quality AQ Index Pollutant
Not available.

Snow Depth

Station Depth Elevation

Earthquake Activity

City Distance Mag. Time & Date
Minimum magnitude displayed is 2.5.

Coastal Water Temperatures

Place Temperature

Nearby Weather Stations